createdAt,value
2018-03-04T00:00:27.750Z,17.00
2018-03-04T00:01:30.266Z,17.63
2018-03-04T00:02:32.866Z,16.03
2018-03-04T00:03:35.399Z,20.83
2018-03-04T00:04:37.918Z,15.20
2018-03-04T00:05:40.438Z,17.37
2018-03-04T00:06:42.976Z,15.03
2018-03-04T00:07:45.508Z,13.50
2018-03-04T00:08:48.026Z,18.20
2018-03-04T00:09:50.553Z,15.33
2018-03-04T00:10:53.067Z,15.17
2018-03-04T00:11:55.610Z,17.93
2018-03-04T00:12:58.140Z,17.50
2018-03-04T00:14:00.649Z,13.17
2018-03-04T00:15:03.163Z,12.77
2018-03-04T00:16:05.699Z,16.10
2018-03-04T00:17:08.257Z,15.10
2018-03-04T00:18:10.791Z,14.27
2018-03-04T00:19:13.330Z,13.00
2018-03-04T00:20:15.847Z,14.33
2018-03-04T00:21:18.376Z,15.03
2018-03-04T00:23:51.044Z,31.57
2018-03-04T00:24:53.566Z,18.37
2018-03-04T00:25:56.094Z,11.90
2018-03-04T00:26:58.606Z,13.10
2018-03-04T00:28:01.300Z,17.27
2018-03-04T00:29:03.836Z,12.97
2018-03-04T00:30:06.371Z,14.33
2018-03-04T00:31:08.892Z,13.10
2018-03-04T00:32:11.401Z,13.87
2018-03-04T00:33:13.929Z,11.53
2018-03-04T00:34:16.433Z,11.90
2018-03-04T00:35:18.961Z,13.60
2018-03-04T00:36:21.492Z,16.27
2018-03-04T00:37:24.018Z,14.23
2018-03-04T00:38:26.574Z,13.33
2018-03-04T00:39:29.086Z,13.57
2018-03-04T00:40:31.616Z,12.30
2018-03-04T00:41:34.145Z,12.00
2018-03-04T00:42:36.664Z,12.63
2018-03-04T00:43:39.193Z,10.63
2018-03-04T00:44:41.716Z,13.73
2018-03-04T00:45:44.248Z,11.97
2018-03-04T00:46:46.762Z,12.10
2018-03-04T00:47:49.294Z,11.87
2018-03-04T00:48:51.845Z,13.50
2018-03-04T00:49:54.362Z,11.93
2018-03-04T00:50:56.887Z,11.17
2018-03-04T00:51:59.424Z,14.20
2018-03-04T00:53:01.938Z,11.00
2018-03-04T00:54:04.491Z,13.33
2018-03-04T00:55:07.007Z,13.03
2018-03-04T00:56:09.526Z,12.40
2018-03-04T00:57:12.038Z,13.77
2018-03-04T00:58:14.564Z,26.23
2018-03-04T00:59:17.125Z,10.73
2018-03-04T01:00:19.638Z,20.87
2018-03-04T01:01:22.168Z,13.20
2018-03-04T01:02:24.683Z,11.10
2018-03-04T01:03:27.216Z,12.73
2018-03-04T01:04:29.755Z,15.13
2018-03-04T01:05:32.265Z,10.47
2018-03-04T01:06:34.790Z,12.83
2018-03-04T01:07:37.306Z,11.53
2018-03-04T01:08:39.821Z,10.27
2018-03-04T01:09:42.357Z,13.97
2018-03-04T01:10:44.870Z,9.77
2018-03-04T01:11:47.406Z,11.57
2018-03-04T01:12:49.951Z,12.53
2018-03-04T01:13:52.478Z,10.17
2018-03-04T01:14:55.016Z,12.07
2018-03-04T01:15:57.546Z,12.07
2018-03-04T01:17:00.058Z,10.67
2018-03-04T01:18:02.582Z,10.33
2018-03-04T01:19:05.120Z,10.77
2018-03-04T01:20:07.650Z,12.60
2018-03-04T01:21:10.178Z,10.53
2018-03-04T01:22:12.697Z,10.80
2018-03-04T01:23:15.210Z,11.67
2018-03-04T01:24:17.753Z,14.00
2018-03-04T01:25:20.346Z,10.60
2018-03-04T01:26:22.886Z,10.47
2018-03-04T01:27:25.402Z,14.40
2018-03-04T01:28:27.907Z,9.37
2018-03-04T01:29:30.418Z,11.77
2018-03-04T01:30:32.972Z,12.67
2018-03-04T01:31:35.503Z,10.93
2018-03-04T01:32:38.032Z,12.03
2018-03-04T01:33:40.550Z,11.10
2018-03-04T01:34:43.076Z,9.87
2018-03-04T01:35:45.625Z,10.77
2018-03-04T01:36:48.146Z,11.20
2018-03-04T01:37:50.665Z,12.60
2018-03-04T01:38:53.186Z,12.23
2018-03-04T01:39:55.702Z,15.40
2018-03-04T01:40:58.243Z,10.43
2018-03-04T01:42:00.780Z,9.50
2018-03-04T01:43:03.294Z,13.03
2018-03-04T01:44:05.823Z,10.57
2018-03-04T01:45:08.372Z,12.17
2018-03-04T01:46:10.922Z,9.70
2018-03-04T01:47:13.421Z,9.97
2018-03-04T01:48:15.935Z,9.63
2018-03-04T01:49:18.464Z,11.60
2018-03-04T01:50:20.980Z,13.30
2018-03-04T01:52:59.430Z,13.63
2018-03-04T01:54:01.963Z,13.50
2018-03-04T01:55:04.491Z,9.93
2018-03-04T01:56:07.006Z,10.53
2018-03-04T01:57:09.522Z,10.23
2018-03-04T01:58:12.037Z,12.73
2018-03-04T01:59:14.547Z,7.80
2018-03-04T02:00:17.066Z,11.07
2018-03-04T02:01:19.591Z,12.63
2018-03-04T02:02:22.118Z,9.03
2018-03-04T02:03:24.629Z,13.43
2018-03-04T02:04:27.156Z,16.47
2018-03-04T02:05:29.728Z,16.73
2018-03-04T02:06:32.245Z,17.10
2018-03-04T02:07:34.764Z,29.90
2018-03-04T02:08:37.520Z,23.03
2018-03-04T02:09:40.037Z,16.40
2018-03-04T02:10:42.552Z,30.67
2018-03-04T02:11:45.084Z,18.13
2018-03-04T02:12:47.598Z,37.03
2018-03-04T02:13:50.346Z,19.40
2018-03-04T02:14:52.857Z,20.93
2018-03-04T02:15:55.390Z,20.37
2018-03-04T02:16:57.910Z,18.87
2018-03-04T02:18:00.431Z,19.00
2018-03-04T02:19:02.959Z,12.27
2018-03-04T02:20:05.494Z,14.00
2018-03-04T02:21:08.071Z,15.83
2018-03-04T02:22:10.591Z,17.07
2018-03-04T02:23:13.431Z,17.07
2018-03-04T02:24:16.080Z,12.60
2018-03-04T02:25:18.619Z,15.60
2018-03-04T02:26:21.149Z,18.03
2018-03-04T02:27:23.674Z,16.00
2018-03-04T02:28:26.185Z,12.83
2018-03-04T02:29:28.711Z,17.13
2018-03-04T02:30:31.222Z,17.67
2018-03-04T02:31:33.746Z,21.40
2018-03-04T02:32:36.262Z,13.60
2018-03-04T02:33:38.774Z,16.47
2018-03-04T02:34:41.312Z,15.60
2018-03-04T02:35:43.867Z,13.60
2018-03-04T02:36:46.385Z,14.83
2018-03-04T02:37:48.908Z,12.27
2018-03-04T02:38:51.423Z,16.50
2018-03-04T02:39:53.957Z,16.40
2018-03-04T02:40:56.508Z,20.13
2018-03-04T02:41:59.046Z,13.20
2018-03-04T02:43:01.562Z,14.63
2018-03-04T02:44:04.233Z,12.67
2018-03-04T02:45:06.754Z,14.10
2018-03-04T02:46:09.288Z,20.37
2018-03-04T02:47:11.798Z,14.50
2018-03-04T02:48:14.328Z,11.17
2018-03-04T02:49:16.860Z,25.63
2018-03-04T02:50:19.402Z,16.43
2018-03-04T02:51:21.944Z,13.50
2018-03-04T02:52:26.272Z,15.93
2018-03-04T02:53:28.803Z,17.20
2018-03-04T02:54:31.336Z,15.50
2018-03-04T02:55:33.895Z,11.93
2018-03-04T02:56:36.520Z,23.47
2018-03-04T02:57:39.042Z,14.67
2018-03-04T02:58:41.585Z,16.30
2018-03-04T02:59:44.144Z,17.93
2018-03-04T03:00:46.673Z,16.23
2018-03-04T03:01:49.248Z,35.63
2018-03-04T03:02:51.763Z,10.10
2018-03-04T03:03:54.300Z,13.93
2018-03-04T03:04:56.826Z,16.40
2018-03-04T03:05:59.338Z,14.73
2018-03-04T03:07:01.854Z,13.53
2018-03-04T03:08:04.370Z,15.77
2018-03-04T03:09:06.928Z,11.73
2018-03-04T03:10:09.448Z,15.10
2018-03-04T03:11:11.969Z,11.70
2018-03-04T03:12:14.477Z,16.73
2018-03-04T03:13:16.999Z,13.70
2018-03-04T03:14:19.525Z,12.80
2018-03-04T03:15:22.046Z,12.57
2018-03-04T03:16:24.566Z,10.97
2018-03-04T03:17:27.092Z,13.50
2018-03-04T03:18:29.622Z,17.17
2018-03-04T03:19:32.142Z,16.73
2018-03-04T03:20:34.671Z,9.57
2018-03-04T03:21:37.183Z,9.90
2018-03-04T03:22:39.706Z,11.80
2018-03-04T03:23:42.236Z,11.03
2018-03-04T03:24:44.759Z,10.27
2018-03-04T03:25:47.292Z,19.60
2018-03-04T03:26:49.812Z,9.67
2018-03-04T03:27:52.331Z,10.90
2018-03-04T03:28:54.863Z,13.57
2018-03-04T03:29:57.409Z,10.17
2018-03-04T03:30:59.989Z,13.33
2018-03-04T03:32:02.508Z,18.53
2018-03-04T03:33:05.017Z,11.30
2018-03-04T03:34:07.697Z,12.70
2018-03-04T03:35:10.223Z,10.67
2018-03-04T03:36:12.748Z,9.87
2018-03-04T03:37:15.263Z,11.50
2018-03-04T03:38:17.793Z,9.60
2018-03-04T03:39:20.305Z,10.40
2018-03-04T03:40:22.832Z,12.83
2018-03-04T03:41:25.349Z,10.77
2018-03-04T03:42:27.876Z,20.03
2018-03-04T03:43:30.404Z,12.17
2018-03-04T03:44:32.917Z,10.70
2018-03-04T03:45:35.433Z,12.50
2018-03-04T03:46:37.969Z,10.37
2018-03-04T03:47:40.497Z,9.33
2018-03-04T03:48:43.020Z,8.70
2018-03-04T03:49:45.544Z,9.50
2018-03-04T03:50:48.070Z,10.57
2018-03-04T03:51:50.600Z,11.70
2018-03-04T03:52:53.112Z,8.40
2018-03-04T03:53:55.640Z,12.40
2018-03-04T03:54:58.149Z,15.40
2018-03-04T03:56:00.684Z,10.20
2018-03-04T03:57:03.223Z,9.80
2018-03-04T03:58:05.751Z,11.10
2018-03-04T03:59:08.267Z,10.40
2018-03-04T04:00:10.782Z,10.33
2018-03-04T04:01:13.294Z,13.87
2018-03-04T04:02:15.859Z,18.43
2018-03-04T04:03:18.432Z,12.80
2018-03-04T04:04:20.972Z,15.23
2018-03-04T04:05:23.479Z,7.37
2018-03-04T04:06:25.994Z,11.10
2018-03-04T04:07:28.521Z,12.40
2018-03-04T04:08:31.079Z,13.80
2018-03-04T04:09:33.604Z,8.63
2018-03-04T04:10:36.132Z,16.37
2018-03-04T04:11:38.666Z,10.57
2018-03-04T04:12:41.200Z,12.33
2018-03-04T04:13:43.721Z,10.40
2018-03-04T04:14:46.255Z,10.50
2018-03-04T04:15:48.971Z,9.83
2018-03-04T04:16:51.486Z,12.17
2018-03-04T04:17:54.012Z,7.20
2018-03-04T04:18:56.531Z,8.60
2018-03-04T04:19:59.050Z,10.67
2018-03-04T04:21:01.579Z,8.60
2018-03-04T04:22:04.124Z,13.77
2018-03-04T04:23:06.656Z,8.20
2018-03-04T04:24:09.170Z,7.93
2018-03-04T04:25:11.692Z,11.00
2018-03-04T04:26:14.219Z,8.60
2018-03-04T04:27:16.733Z,10.87
2018-03-04T04:28:19.246Z,15.07
2018-03-04T04:29:21.771Z,8.67
2018-03-04T04:30:24.291Z,7.07
2018-03-04T04:31:26.801Z,9.60
2018-03-04T04:32:29.324Z,10.10
2018-03-04T04:33:31.856Z,10.27
2018-03-04T04:34:34.365Z,11.23
2018-03-04T04:35:36.898Z,8.60
2018-03-04T04:36:39.421Z,7.83
2018-03-04T04:37:41.938Z,12.87
2018-03-04T04:38:45.038Z,8.90
2018-03-04T04:39:47.562Z,9.83
2018-03-04T04:40:50.084Z,7.40
2018-03-04T04:41:52.590Z,8.60
2018-03-04T04:42:55.120Z,6.90
2018-03-04T04:43:57.644Z,8.00
2018-03-04T04:45:00.175Z,6.93
2018-03-04T04:46:02.703Z,6.80
2018-03-04T04:47:05.209Z,9.40
2018-03-04T04:48:07.738Z,8.97
2018-03-04T04:49:10.264Z,10.00
2018-03-04T04:50:12.765Z,8.57
2018-03-04T04:51:15.280Z,14.03
2018-03-04T04:52:17.798Z,9.67
2018-03-04T04:53:20.325Z,6.40
2018-03-04T04:54:22.852Z,11.10
2018-03-04T04:55:25.374Z,7.93
2018-03-04T04:56:27.889Z,13.70
2018-03-04T04:57:30.408Z,8.57
2018-03-04T04:58:32.925Z,7.87
2018-03-04T04:59:35.453Z,10.67
2018-03-04T05:00:37.970Z,6.90
2018-03-04T05:01:40.481Z,10.10
2018-03-04T05:02:42.997Z,7.97
2018-03-04T05:03:45.523Z,8.63
2018-03-04T05:04:48.040Z,7.43
2018-03-04T05:05:50.550Z,7.30
2018-03-04T05:06:53.067Z,7.10
2018-03-04T05:07:55.634Z,7.20
2018-03-04T05:08:58.148Z,7.30
2018-03-04T05:10:00.677Z,10.10
2018-03-04T05:11:03.206Z,8.63
2018-03-04T05:12:05.725Z,6.43
2018-03-04T05:13:08.240Z,7.60
2018-03-04T05:14:10.757Z,10.03
2018-03-04T05:15:13.292Z,10.90
2018-03-04T05:16:15.806Z,6.97
2018-03-04T05:17:18.328Z,8.27
2018-03-04T05:18:20.835Z,6.50
2018-03-04T05:19:23.356Z,6.10
2018-03-04T05:20:25.901Z,10.03
2018-03-04T05:21:28.414Z,6.40
2018-03-04T05:22:30.936Z,9.60
2018-03-04T05:23:33.467Z,7.67
2018-03-04T05:24:35.994Z,7.00
2018-03-04T05:25:38.505Z,5.93
2018-03-04T05:26:41.033Z,36.80
2018-03-04T05:27:43.556Z,7.93
2018-03-04T05:28:46.084Z,7.20
2018-03-04T05:29:48.613Z,9.33
2018-03-04T05:30:51.129Z,6.73
2018-03-04T05:31:53.656Z,8.17
2018-03-04T05:32:56.182Z,5.90
2018-03-04T05:33:58.712Z,6.90
2018-03-04T05:35:01.236Z,7.27
2018-03-04T05:36:03.763Z,7.57
2018-03-04T05:37:06.288Z,8.87
2018-03-04T05:38:08.809Z,8.93
2018-03-04T05:39:11.355Z,6.73
2018-03-04T05:40:13.883Z,12.83
2018-03-04T05:41:16.385Z,8.97
2018-03-04T05:42:18.893Z,6.50
2018-03-04T05:43:21.416Z,8.07
2018-03-04T05:44:23.971Z,9.40
2018-03-04T05:45:26.496Z,11.90
2018-03-04T05:46:29.010Z,14.50
2018-03-04T05:47:31.543Z,6.87
2018-03-04T05:48:34.072Z,8.23
2018-03-04T05:49:36.625Z,6.90
2018-03-04T05:50:39.164Z,7.23
2018-03-04T05:51:41.671Z,5.77
2018-03-04T05:52:44.200Z,9.73
2018-03-04T05:53:46.714Z,6.60
2018-03-04T05:54:49.230Z,8.17
2018-03-04T05:55:51.790Z,8.47
2018-03-04T05:56:54.379Z,8.50
2018-03-04T05:57:56.899Z,6.53
2018-03-04T05:58:59.409Z,6.60
2018-03-04T06:00:01.932Z,6.80
2018-03-04T06:01:04.544Z,7.40
2018-03-04T06:02:07.062Z,8.37
2018-03-04T06:03:09.570Z,7.53
2018-03-04T06:04:12.108Z,6.37
2018-03-04T06:05:14.622Z,7.63
2018-03-04T06:06:17.144Z,7.30
2018-03-04T06:07:19.751Z,6.53
2018-03-04T06:08:22.277Z,10.17
2018-03-04T06:09:24.795Z,6.47
2018-03-04T06:10:27.306Z,8.23
2018-03-04T06:11:29.832Z,9.07
2018-03-04T06:12:32.341Z,6.07
2018-03-04T06:13:34.906Z,8.53
2018-03-04T06:14:37.428Z,9.80
2018-03-04T06:15:39.965Z,5.83
2018-03-04T06:16:42.491Z,6.53
2018-03-04T06:17:45.021Z,10.10
2018-03-04T06:18:47.544Z,9.00
2018-03-04T06:19:50.072Z,6.93
2018-03-04T06:20:52.589Z,7.10
2018-03-04T06:21:55.110Z,7.10
2018-03-04T06:22:57.644Z,12.60
2018-03-04T06:24:00.155Z,6.60
2018-03-04T06:25:02.662Z,6.20
2018-03-04T06:26:05.177Z,14.40
2018-03-04T06:27:07.723Z,6.70
2018-03-04T06:28:15.979Z,8.63
2018-03-04T06:29:18.730Z,7.73
2018-03-04T06:30:22.989Z,7.20
2018-03-04T06:31:25.513Z,7.27
2018-03-04T06:32:28.047Z,6.30
2018-03-04T06:33:30.558Z,7.33
2018-03-04T06:34:33.080Z,7.90
2018-03-04T06:35:35.600Z,7.13
2018-03-04T06:36:38.130Z,12.43
2018-03-04T06:37:40.676Z,4.80
2018-03-04T06:38:43.236Z,5.97
2018-03-04T06:39:45.779Z,7.43
2018-03-04T06:40:48.313Z,12.47
2018-03-04T06:41:54.017Z,6.63
2018-03-04T06:42:56.542Z,7.93
2018-03-04T06:43:59.054Z,6.70
2018-03-04T06:45:01.578Z,9.00
2018-03-04T06:46:04.094Z,23.83
2018-03-04T06:47:06.609Z,31.87
2018-03-04T06:48:09.236Z,38.30
2018-03-04T06:49:11.754Z,36.97
2018-03-04T06:50:14.307Z,47.40
2018-03-04T06:51:17.127Z,47.13
2018-03-04T06:52:19.679Z,41.70
2018-03-04T06:53:22.218Z,43.93
2018-03-04T06:54:24.815Z,42.53
2018-03-04T06:55:27.424Z,47.27
2018-03-04T06:56:29.938Z,53.30
2018-03-04T06:57:32.464Z,48.87
2018-03-04T06:58:35.005Z,47.20
2018-03-04T06:59:37.522Z,48.67
2018-03-04T07:00:40.042Z,45.23
2018-03-04T07:01:42.595Z,47.00
2018-03-04T07:02:45.131Z,49.90
2018-03-04T07:03:47.700Z,45.53
2018-03-04T07:04:50.242Z,51.83
2018-03-04T07:05:52.836Z,48.93
2018-03-04T07:06:55.372Z,48.70
2018-03-04T07:07:57.928Z,49.17
2018-03-04T07:09:00.488Z,44.00
2018-03-04T07:10:03.001Z,49.20
2018-03-04T07:11:05.521Z,45.23
2018-03-04T07:12:08.053Z,49.60
2018-03-04T07:13:10.696Z,49.03
2018-03-04T07:14:13.243Z,49.77
2018-03-04T07:15:15.772Z,51.90
2018-03-04T07:16:18.658Z,58.37
2018-03-04T07:17:21.431Z,48.07
2018-03-04T07:18:24.291Z,49.87
2018-03-04T07:19:27.055Z,46.00
2018-03-04T07:20:29.618Z,47.97
2018-03-04T07:21:32.485Z,52.10
2018-03-04T07:22:35.043Z,50.23
2018-03-04T07:23:37.571Z,47.43
2018-03-04T07:24:40.261Z,49.80
2018-03-04T07:25:42.943Z,51.17
2018-03-04T07:26:45.478Z,47.97
2018-03-04T07:27:48.969Z,48.60
2018-03-04T07:28:51.523Z,49.20
2018-03-04T07:29:54.093Z,45.03
2018-03-04T07:30:56.624Z,50.77
2018-03-04T07:31:59.141Z,47.60
2018-03-04T07:33:01.660Z,48.43
2018-03-04T07:34:04.180Z,47.30
2018-03-04T07:35:06.761Z,47.70
2018-03-04T07:36:09.302Z,45.90
2018-03-04T07:37:11.841Z,46.97
2018-03-04T07:38:14.365Z,47.30
2018-03-04T07:39:16.878Z,46.33
2018-03-04T07:40:19.435Z,48.63
2018-03-04T07:41:21.951Z,45.73
2018-03-04T07:42:24.512Z,44.47
2018-03-04T07:43:27.044Z,48.77
2018-03-04T07:44:29.562Z,50.10
2018-03-04T07:45:32.251Z,45.73
2018-03-04T07:46:34.806Z,50.93
2018-03-04T07:47:37.416Z,50.60
2018-03-04T07:48:39.941Z,47.97
2018-03-04T07:49:42.470Z,45.57
2018-03-04T07:50:45.015Z,47.30
2018-03-04T07:51:47.530Z,52.70
2018-03-04T07:52:50.046Z,53.30
2018-03-04T07:53:52.569Z,52.20
2018-03-04T07:54:55.089Z,50.03
2018-03-04T07:55:57.629Z,47.57
2018-03-04T07:57:00.228Z,50.20
2018-03-04T07:58:02.733Z,50.50
2018-03-04T07:59:05.248Z,48.03
2018-03-04T08:00:07.794Z,61.10
2018-03-04T08:01:10.348Z,48.60
2018-03-04T08:02:12.865Z,44.90
2018-03-04T08:03:15.395Z,43.63
2018-03-04T08:04:17.910Z,46.77
2018-03-04T08:05:20.443Z,48.70
2018-03-04T08:06:23.012Z,49.10
2018-03-04T08:07:25.529Z,55.20
2018-03-04T08:08:28.046Z,48.87
2018-03-04T08:09:30.572Z,48.53
2018-03-04T08:10:33.086Z,53.43
2018-03-04T08:11:35.617Z,52.83
2018-03-04T08:12:38.162Z,51.90
2018-03-04T08:13:40.696Z,50.77
2018-03-04T08:14:43.239Z,53.80
2018-03-04T08:15:45.775Z,48.30
2018-03-04T08:16:48.315Z,53.47
2018-03-04T08:17:50.857Z,49.40
2018-03-04T08:18:53.441Z,47.50
2018-03-04T08:19:55.989Z,55.63
2018-03-04T08:20:58.519Z,51.13
2018-03-04T08:22:01.076Z,53.67
2018-03-04T08:23:03.693Z,50.73
2018-03-04T08:24:06.215Z,52.50
2018-03-04T08:25:20.459Z,51.37
2018-03-04T08:26:34.874Z,50.83
2018-03-04T08:27:49.469Z,47.77
2018-03-04T08:28:52.012Z,49.97
2018-03-04T08:29:54.538Z,51.67
2018-03-04T08:30:57.084Z,48.83
2018-03-04T08:31:59.606Z,47.63
2018-03-04T08:33:02.164Z,48.50
2018-03-04T08:34:04.678Z,44.13
2018-03-04T08:35:07.270Z,51.17
2018-03-04T08:36:09.789Z,45.83
2018-03-04T08:37:12.302Z,46.80
2018-03-04T08:38:14.864Z,50.63
2018-03-04T08:39:17.417Z,45.80
2018-03-04T08:40:19.939Z,50.73
2018-03-04T08:41:22.477Z,49.27
2018-03-04T08:42:24.998Z,44.90
2018-03-04T08:43:27.538Z,52.33
2018-03-04T08:44:30.059Z,42.03
2018-03-04T08:45:32.605Z,47.67
2018-03-04T08:46:35.151Z,50.53
2018-03-04T08:47:37.666Z,54.53
2018-03-04T08:48:40.267Z,53.90
2018-03-04T08:49:42.795Z,50.07
2018-03-04T08:50:45.364Z,42.73
2018-03-04T08:51:52.299Z,48.20
2018-03-04T08:52:55.251Z,47.47
2018-03-04T08:53:57.785Z,51.17
2018-03-04T08:55:00.309Z,55.13
2018-03-04T08:56:02.839Z,47.93
2018-03-04T08:57:05.368Z,48.17
2018-03-04T08:58:07.909Z,41.03
2018-03-04T08:59:10.429Z,50.90
2018-03-04T09:00:12.958Z,57.33
2018-03-04T09:01:15.496Z,55.80
2018-03-04T09:02:18.069Z,57.87
2018-03-04T09:03:20.586Z,57.40
2018-03-04T09:04:23.105Z,57.53
2018-03-04T09:05:25.642Z,53.03
2018-03-04T09:06:28.178Z,51.90
2018-03-04T09:07:30.714Z,56.97
2018-03-04T09:08:33.252Z,53.63
2018-03-04T09:09:35.831Z,51.27
2018-03-04T09:10:38.352Z,50.43
2018-03-04T09:11:40.925Z,53.30
2018-03-04T09:12:43.426Z,52.90
2018-03-04T09:13:45.949Z,49.33
2018-03-04T09:14:48.514Z,49.57
2018-03-04T09:15:51.073Z,47.87
2018-03-04T09:16:53.599Z,47.00
2018-03-04T09:17:56.124Z,47.90
2018-03-04T09:18:58.652Z,48.27
2018-03-04T09:20:01.192Z,44.37
2018-03-04T09:21:03.747Z,45.20
2018-03-04T09:22:06.276Z,44.17
2018-03-04T09:23:08.815Z,47.63
2018-03-04T09:24:11.351Z,44.60
2018-03-04T09:25:13.897Z,38.50
2018-03-04T09:26:16.436Z,37.20
2018-03-04T09:27:18.978Z,46.43
2018-03-04T09:28:21.580Z,40.83
2018-03-04T09:29:24.172Z,44.23
2018-03-04T09:30:26.715Z,43.87
2018-03-04T09:31:29.237Z,40.57
2018-03-04T09:32:31.797Z,34.90
2018-03-04T09:33:34.325Z,41.17
2018-03-04T09:34:36.895Z,35.40
2018-03-04T09:35:39.423Z,37.60
2018-03-04T09:36:42.116Z,36.93
2018-03-04T09:37:44.651Z,38.57
2018-03-04T09:38:47.198Z,33.67
2018-03-04T09:39:49.753Z,33.30
2018-03-04T09:40:52.270Z,37.63
2018-03-04T09:41:54.804Z,33.57
2018-03-04T09:42:57.332Z,37.97
2018-03-04T09:45:21.818Z,35.57
2018-03-04T09:46:25.673Z,33.30
2018-03-04T09:47:28.187Z,38.40
2018-03-04T09:48:30.698Z,39.33
2018-03-04T09:49:33.243Z,36.58
2018-03-04T09:50:35.832Z,36.20
2018-03-04T09:51:38.415Z,34.40
2018-03-04T09:52:40.955Z,34.20
2018-03-04T09:53:43.492Z,35.60
2018-03-04T09:54:46.091Z,33.90
2018-03-04T09:55:48.649Z,29.93
2018-03-04T09:56:51.180Z,36.67
2018-03-04T09:57:53.734Z,35.00
2018-03-04T09:58:56.252Z,33.03
2018-03-04T09:59:58.780Z,35.20
2018-03-04T10:01:01.327Z,34.70
2018-03-04T10:02:03.846Z,34.57
2018-03-04T10:03:06.367Z,33.60
2018-03-04T10:04:08.885Z,26.47
2018-03-04T10:05:11.421Z,31.93
2018-03-04T10:06:13.958Z,31.73
2018-03-04T10:07:16.479Z,32.13
2018-03-04T10:08:19.022Z,30.40
2018-03-04T10:09:21.553Z,29.80
2018-03-04T10:10:26.310Z,30.57
2018-03-04T10:11:28.868Z,31.37
2018-03-04T10:12:31.398Z,30.90
2018-03-04T10:13:33.935Z,28.10
2018-03-04T10:14:36.453Z,29.80
2018-03-04T10:15:39.814Z,28.77
2018-03-04T10:16:42.350Z,34.07
2018-03-04T10:17:44.862Z,32.63
2018-03-04T10:18:47.382Z,28.07
2018-03-04T10:19:49.940Z,26.03
2018-03-04T10:20:52.484Z,27.07
2018-03-04T10:21:55.019Z,25.00
2018-03-04T10:22:57.541Z,31.13
2018-03-04T10:24:00.191Z,26.73
2018-03-04T10:25:02.723Z,24.43
2018-03-04T10:26:05.241Z,27.97
2018-03-04T10:27:07.773Z,25.73
2018-03-04T10:28:10.294Z,22.60
2018-03-04T10:29:12.845Z,28.10
2018-03-04T10:30:15.376Z,25.80
2018-03-04T10:31:17.904Z,25.73
2018-03-04T10:32:20.437Z,25.80
2018-03-04T10:33:22.953Z,25.67
2018-03-04T10:34:25.484Z,24.93
2018-03-04T10:35:28.070Z,24.27
2018-03-04T10:36:30.655Z,25.30
2018-03-04T10:37:33.188Z,19.77
2018-03-04T10:38:35.705Z,28.63
2018-03-04T10:39:38.226Z,26.03
2018-03-04T10:40:40.769Z,23.13
2018-03-04T10:41:43.328Z,23.50
2018-03-04T10:42:45.860Z,23.60
2018-03-04T10:43:48.683Z,23.73
2018-03-04T10:44:51.441Z,24.90
2018-03-04T10:45:53.973Z,23.77
2018-03-04T10:46:56.509Z,24.90
2018-03-04T10:47:59.050Z,22.40
2018-03-04T10:49:01.584Z,21.60
2018-03-04T10:50:04.104Z,24.00
2018-03-04T10:51:06.626Z,24.03
2018-03-04T10:52:09.164Z,20.67
2018-03-04T10:53:11.687Z,24.33
2018-03-04T10:54:14.216Z,23.37
2018-03-04T10:55:16.736Z,23.43
2018-03-04T10:56:19.390Z,21.10
2018-03-04T10:57:21.939Z,20.23
2018-03-04T10:58:24.464Z,22.33
2018-03-04T10:59:27.070Z,20.63
2018-03-04T11:02:13.454Z,22.70
2018-03-04T11:03:15.995Z,19.53
2018-03-04T11:04:18.531Z,22.33
2018-03-04T11:05:21.062Z,20.47
2018-03-04T11:06:23.585Z,23.43
2018-03-04T11:07:26.146Z,21.50
2018-03-04T11:08:28.814Z,19.70
2018-03-04T11:09:31.333Z,21.20
2018-03-04T11:10:33.871Z,21.40
2018-03-04T11:11:36.449Z,21.50
2018-03-04T11:12:39.124Z,22.20
2018-03-04T11:13:41.646Z,21.23
2018-03-04T11:14:44.224Z,22.20
2018-03-04T11:15:46.768Z,18.90
2018-03-04T11:16:49.284Z,18.13
2018-03-04T11:17:51.802Z,19.00
2018-03-04T11:18:54.362Z,19.97
2018-03-04T11:19:56.899Z,21.13
2018-03-04T11:20:59.432Z,19.43
2018-03-04T11:22:01.993Z,19.40
2018-03-04T11:23:04.618Z,18.57
2018-03-04T11:24:07.163Z,19.40
2018-03-04T11:25:09.718Z,18.93
2018-03-04T11:26:12.252Z,19.50
2018-03-04T11:27:14.775Z,17.97
2018-03-04T11:28:17.298Z,18.00
2018-03-04T11:29:19.814Z,16.70
2018-03-04T11:30:22.344Z,17.20
2018-03-04T11:31:24.931Z,18.40
2018-03-04T11:32:27.450Z,17.83
2018-03-04T11:33:29.991Z,17.63
2018-03-04T11:34:32.523Z,19.30
2018-03-04T11:35:35.069Z,16.47
2018-03-04T11:36:37.591Z,18.80
2018-03-04T11:37:40.106Z,18.80
2018-03-04T11:38:42.636Z,18.73
2018-03-04T11:39:45.202Z,14.80
2018-03-04T11:40:47.740Z,16.00
2018-03-04T11:41:50.286Z,19.27
2018-03-04T11:42:52.872Z,19.67
2018-03-04T11:43:55.374Z,14.63
2018-03-04T11:44:57.917Z,18.63
2018-03-04T11:46:00.433Z,14.47
2018-03-04T11:47:02.974Z,18.73
2018-03-04T11:48:05.504Z,14.90
2018-03-04T11:49:08.038Z,18.27
2018-03-04T11:50:10.567Z,16.40
2018-03-04T11:51:13.120Z,15.47
2018-03-04T11:52:15.647Z,15.43
2018-03-04T11:53:18.183Z,15.20
2018-03-04T11:54:20.708Z,18.40
2018-03-04T11:55:23.225Z,16.20
2018-03-04T11:56:25.752Z,16.03
2018-03-04T11:57:28.270Z,14.57
2018-03-04T11:58:30.786Z,15.40
2018-03-04T11:59:33.335Z,17.20
2018-03-04T12:00:35.876Z,16.87
2018-03-04T12:01:38.393Z,16.93
2018-03-04T12:02:40.933Z,16.07
2018-03-04T12:03:43.537Z,17.43
2018-03-04T12:04:46.062Z,15.27
2018-03-04T12:05:48.591Z,17.47
2018-03-04T12:06:51.138Z,14.97
2018-03-04T12:07:53.687Z,16.30
2018-03-04T12:08:56.231Z,16.80
2018-03-04T12:09:58.770Z,14.67
2018-03-04T12:11:01.286Z,14.27
2018-03-04T12:12:03.841Z,15.10
2018-03-04T12:13:06.388Z,17.23
2018-03-04T12:14:08.906Z,17.10
2018-03-04T12:15:11.483Z,14.53
2018-03-04T12:16:13.976Z,18.73
2018-03-04T12:17:16.522Z,15.13
2018-03-04T12:18:19.052Z,15.40
2018-03-04T12:19:21.576Z,15.83
2018-03-04T12:20:24.164Z,11.83
2018-03-04T12:21:26.683Z,13.40
2018-03-04T12:22:29.211Z,13.70
2018-03-04T12:23:31.745Z,16.23
2018-03-04T12:24:34.258Z,13.30
2018-03-04T12:25:36.779Z,15.33
2018-03-04T12:26:39.308Z,14.63
2018-03-04T12:27:41.822Z,13.77
2018-03-04T12:28:44.347Z,14.00
2018-03-04T12:29:46.862Z,14.70
2018-03-04T12:30:49.739Z,14.63
2018-03-04T12:31:52.270Z,13.77
2018-03-04T12:32:54.848Z,13.67
2018-03-04T12:33:57.362Z,14.67
2018-03-04T12:34:59.908Z,15.40
2018-03-04T12:36:02.421Z,14.17
2018-03-04T12:37:04.952Z,15.47
2018-03-04T12:38:07.542Z,13.70
2018-03-04T12:39:10.076Z,13.53
2018-03-04T12:40:12.611Z,13.60
2018-03-04T12:41:15.208Z,13.67
2018-03-04T12:42:17.747Z,13.90
2018-03-04T12:43:20.255Z,15.23
2018-03-04T12:44:22.774Z,12.43
2018-03-04T12:45:25.324Z,12.67
2018-03-04T12:46:27.860Z,13.97
2018-03-04T12:47:30.382Z,13.73
2018-03-04T12:48:32.918Z,12.60
2018-03-04T12:49:35.468Z,13.30
2018-03-04T12:50:38.058Z,12.57
2018-03-04T12:51:40.578Z,13.47
2018-03-04T12:52:43.104Z,14.67
2018-03-04T12:53:45.641Z,14.33
2018-03-04T12:54:48.173Z,12.20
2018-03-04T12:55:51.037Z,13.33
2018-03-04T12:56:53.562Z,13.67
2018-03-04T12:57:56.120Z,12.27
2018-03-04T12:58:58.666Z,14.67
2018-03-04T13:00:01.192Z,12.40
2018-03-04T13:01:03.723Z,13.23
2018-03-04T13:02:06.255Z,14.67
2018-03-04T13:03:08.773Z,14.20
2018-03-04T13:04:11.326Z,16.40
2018-03-04T13:05:13.860Z,12.13
2018-03-04T13:06:16.373Z,12.47
2018-03-04T13:07:18.887Z,13.43
2018-03-04T13:08:21.425Z,13.80
2018-03-04T13:09:23.945Z,13.47
2018-03-04T13:10:26.474Z,11.87
2018-03-04T13:11:29.003Z,12.30
2018-03-04T13:12:31.514Z,13.67
2018-03-04T13:13:34.038Z,12.30
2018-03-04T13:14:36.554Z,13.40
2018-03-04T13:15:39.118Z,11.33
2018-03-04T13:16:41.630Z,13.30
2018-03-04T13:17:44.187Z,13.23
2018-03-04T13:18:46.719Z,15.20
2018-03-04T13:19:49.248Z,13.30
2018-03-04T13:20:51.770Z,13.40
2018-03-04T13:21:54.290Z,12.87
2018-03-04T13:22:56.813Z,13.40
2018-03-04T13:23:59.325Z,12.37
2018-03-04T13:25:01.856Z,12.40
2018-03-04T13:26:04.388Z,13.47
2018-03-04T13:27:06.920Z,12.20
2018-03-04T13:28:09.456Z,11.60
2018-03-04T13:29:11.967Z,11.57
2018-03-04T13:30:14.629Z,12.73
2018-03-04T13:31:17.155Z,11.67
2018-03-04T13:32:19.693Z,11.87
2018-03-04T13:33:22.210Z,13.10
2018-03-04T13:34:24.801Z,12.03
2018-03-04T13:35:27.309Z,13.60
2018-03-04T13:36:29.846Z,11.87
2018-03-04T13:37:32.379Z,11.47